SAS2747 EYPA-EKCH
Flight info
| Callsign | SAS2747 |
|---|---|
| Flight time | 1h 12m |
| Altitude | 24000 |
| Route | TIRIN DCT VEDEN DCT ELVIX L975 TIDVU |
| Aircraft | DH8D/M-SDE2E3FGRY/H |
Departure
| Time | 2026-04-24 10:03 |
|---|---|
| Airport | Palanga International Airport (EYPA) |
Arrival
| Time | 2026-04-24 11:15 |
|---|---|
| Airport | Copenhagen Kastrup Airport (EKCH) |
| Time | Latitude | Longitude | Altitude | Speed | Heading |
|---|---|---|---|---|---|
| 2026-04-24 09:06 | 55.97116 | 21.09622 | 43 ft | 0 kts | 208° |
| 2026-04-24 09:59 | 55.97100 | 21.09607 | 43 ft | 5 kts | 210° |
| 2026-04-24 10:00 | 55.97087 | 21.09522 | 43 ft | 7 kts | 284° |
| 2026-04-24 10:00 | 55.97102 | 21.09416 | 43 ft | 12 kts | 284° |
| 2026-04-24 10:00 | 55.97160 | 21.09323 | 43 ft | 14 kts | 12° |
| 2026-04-24 10:00 | 55.97253 | 21.09361 | 43 ft | 13 kts | 12° |
| 2026-04-24 10:01 | 55.97359 | 21.09404 | 43 ft | 17 kts | 13° |
| 2026-04-24 10:01 | 55.97489 | 21.09456 | 43 ft | 20 kts | 12° |
| 2026-04-24 10:01 | 55.97610 | 21.09512 | 43 ft | 15 kts | 28° |
| 2026-04-24 10:01 | 55.97657 | 21.09527 | 43 ft | 2 kts | 240° |
| 2026-04-24 10:02 | 55.97650 | 21.09521 | 43 ft | 0 kts | 194° |
| 2026-04-24 10:02 | 55.97602 | 21.09502 | 43 ft | 34 kts | 194° |
| 2026-04-24 10:02 | 55.97052 | 21.09279 | 44 ft | 119 kts | 192° |
| 2026-04-24 10:02 | 55.96125 | 21.08898 | 215 ft | 148 kts | 197° |
| 2026-04-24 10:03 | 55.95089 | 21.08405 | 692 ft | 161 kts | 194° |
| 2026-04-24 10:03 | 55.93983 | 21.07915 | 1202 ft | 171 kts | 193° |
| 2026-04-24 10:03 | 55.92810 | 21.07399 | 1698 ft | 178 kts | 195° |
| 2026-04-24 10:03 | 55.91589 | 21.06901 | 2176 ft | 185 kts | 194° |
| 2026-04-24 10:04 | 55.90274 | 21.06377 | 2398 ft | 209 kts | 193° |
| 2026-04-24 10:04 | 55.88800 | 21.05792 | 2788 ft | 221 kts | 194° |
| 2026-04-24 10:04 | 55.87405 | 21.04713 | 3245 ft | 223 kts | 224° |
| 2026-04-24 10:04 | 55.86739 | 21.02355 | 3739 ft | 217 kts | 268° |
| 2026-04-24 10:05 | 55.87188 | 20.99909 | 4296 ft | 209 kts | 312° |
| 2026-04-24 10:05 | 55.88422 | 20.98672 | 4847 ft | 208 kts | 342° |
| 2026-04-24 10:05 | 55.89805 | 20.98037 | 5444 ft | 207 kts | 345° |
| 2026-04-24 10:05 | 55.91219 | 20.97442 | 6040 ft | 208 kts | 346° |
| 2026-04-24 10:06 | 55.92614 | 20.96867 | 6666 ft | 208 kts | 346° |
| 2026-04-24 10:06 | 55.95428 | 20.95708 | 7826 ft | 211 kts | 346° |
| 2026-04-24 10:06 | 55.96869 | 20.95114 | 8384 ft | 214 kts | 346° |
| 2026-04-24 10:07 | 55.98307 | 20.94521 | 8915 ft | 217 kts | 346° |
| 2026-04-24 10:07 | 55.99761 | 20.93901 | 9529 ft | 216 kts | 344° |
| 2026-04-24 10:07 | 56.01010 | 20.92433 | 9989 ft | 223 kts | 311° |
| 2026-04-24 10:07 | 56.01832 | 20.90032 | 10548 ft | 227 kts | 304° |
| 2026-04-24 10:08 | 56.02626 | 20.87545 | 11158 ft | 228 kts | 304° |
| 2026-04-24 10:08 | 56.03403 | 20.85112 | 11753 ft | 228 kts | 304° |
| 2026-04-24 10:08 | 56.04184 | 20.82671 | 12369 ft | 228 kts | 305° |
| 2026-04-24 10:08 | 56.04969 | 20.80226 | 12956 ft | 229 kts | 306° |
| 2026-04-24 10:09 | 56.05762 | 20.77761 | 13491 ft | 230 kts | 306° |
| 2026-04-24 10:09 | 56.06549 | 20.75309 | 13992 ft | 231 kts | 305° |
| 2026-04-24 10:09 | 56.07268 | 20.72743 | 14538 ft | 233 kts | 302° |
| 2026-04-24 10:09 | 56.07947 | 20.70104 | 14981 ft | 236 kts | 301° |
| 2026-04-24 10:10 | 56.08627 | 20.67449 | 15492 ft | 236 kts | 301° |
| 2026-04-24 10:10 | 56.09313 | 20.64772 | 15969 ft | 237 kts | 301° |
| 2026-04-24 10:10 | 56.09998 | 20.62099 | 16419 ft | 238 kts | 301° |
| 2026-04-24 10:10 | 56.10684 | 20.59423 | 16835 ft | 241 kts | 301° |
| 2026-04-24 10:11 | 56.11377 | 20.56713 | 17324 ft | 240 kts | 301° |
| 2026-04-24 10:11 | 56.12075 | 20.53987 | 17711 ft | 243 kts | 301° |
| 2026-04-24 10:11 | 56.12779 | 20.51232 | 18170 ft | 243 kts | 301° |
| 2026-04-24 10:11 | 56.13475 | 20.48511 | 18555 ft | 244 kts | 301° |
| 2026-04-24 10:12 | 56.14182 | 20.45744 | 18891 ft | 247 kts | 301° |
| 2026-04-24 10:12 | 56.14888 | 20.42971 | 19328 ft | 247 kts | 300° |
| 2026-04-24 10:12 | 56.15605 | 20.40159 | 19707 ft | 247 kts | 300° |
| 2026-04-24 10:12 | 56.16324 | 20.37334 | 20027 ft | 250 kts | 300° |
| 2026-04-24 10:13 | 56.17046 | 20.34491 | 20352 ft | 251 kts | 299° |
| 2026-04-24 10:13 | 56.17761 | 20.31672 | 20683 ft | 252 kts | 299° |
| 2026-04-24 10:13 | 56.18496 | 20.28774 | 20982 ft | 253 kts | 299° |
| 2026-04-24 10:13 | 56.19213 | 20.25939 | 21246 ft | 256 kts | 299° |
| 2026-04-24 10:14 | 56.19938 | 20.23073 | 21634 ft | 252 kts | 298° |
| 2026-04-24 10:14 | 56.20668 | 20.20182 | 21820 ft | 255 kts | 298° |
| 2026-04-24 10:14 | 56.21400 | 20.17277 | 22049 ft | 258 kts | 298° |
| 2026-04-24 10:14 | 56.22133 | 20.14368 | 22337 ft | 258 kts | 298° |
| 2026-04-24 10:15 | 56.22868 | 20.11444 | 22619 ft | 257 kts | 298° |
| 2026-04-24 10:15 | 56.23613 | 20.08478 | 22837 ft | 259 kts | 298° |
| 2026-04-24 10:15 | 56.24346 | 20.05557 | 23059 ft | 259 kts | 298° |
| 2026-04-24 10:15 | 56.25090 | 20.02591 | 23242 ft | 262 kts | 298° |
| 2026-04-24 10:16 | 56.25837 | 19.99605 | 23495 ft | 261 kts | 298° |
| 2026-04-24 10:16 | 56.26574 | 19.96650 | 23681 ft | 262 kts | 298° |
| 2026-04-24 10:16 | 56.27320 | 19.93661 | 23876 ft | 263 kts | 298° |
| 2026-04-24 10:16 | 56.28079 | 19.90620 | 23924 ft | 269 kts | 298° |
| 2026-04-24 10:17 | 56.28854 | 19.87516 | 23940 ft | 275 kts | 297° |
| 2026-04-24 10:17 | 56.29643 | 19.84344 | 23944 ft | 281 kts | 297° |
| 2026-04-24 10:17 | 56.30445 | 19.81113 | 23943 ft | 286 kts | 297° |
| 2026-04-24 10:17 | 56.31258 | 19.77832 | 23945 ft | 290 kts | 297° |
| 2026-04-24 10:18 | 56.32085 | 19.74486 | 23946 ft | 294 kts | 297° |
| 2026-04-24 10:18 | 56.32919 | 19.71109 | 23945 ft | 298 kts | 297° |
| 2026-04-24 10:18 | 56.33758 | 19.67701 | 23949 ft | 300 kts | 297° |
| 2026-04-24 10:18 | 56.34605 | 19.64261 | 23946 ft | 303 kts | 297° |
| 2026-04-24 10:19 | 56.35461 | 19.60777 | 23942 ft | 305 kts | 297° |
| 2026-04-24 10:19 | 56.36317 | 19.57291 | 23948 ft | 306 kts | 297° |
| 2026-04-24 10:19 | 56.37179 | 19.53770 | 23954 ft | 308 kts | 297° |
| 2026-04-24 10:19 | 56.38039 | 19.50254 | 23953 ft | 308 kts | 297° |
| 2026-04-24 10:20 | 56.38902 | 19.46721 | 23952 ft | 309 kts | 297° |
| 2026-04-24 10:20 | 56.39771 | 19.43160 | 23950 ft | 310 kts | 297° |
| 2026-04-24 10:20 | 56.40630 | 19.39631 | 23949 ft | 310 kts | 297° |
| 2026-04-24 10:20 | 56.41497 | 19.36068 | 23952 ft | 311 kts | 297° |
| 2026-04-24 10:21 | 56.42361 | 19.32507 | 23953 ft | 311 kts | 296° |
| 2026-04-24 10:21 | 56.43235 | 19.28898 | 23951 ft | 312 kts | 296° |
| 2026-04-24 10:21 | 56.44100 | 19.25326 | 23952 ft | 313 kts | 296° |
| 2026-04-24 10:21 | 56.44961 | 19.21763 | 23956 ft | 313 kts | 296° |
| 2026-04-24 10:22 | 56.45836 | 19.18137 | 23954 ft | 313 kts | 296° |
| 2026-04-24 10:22 | 56.46703 | 19.14543 | 23947 ft | 314 kts | 296° |
| 2026-04-24 10:22 | 56.47564 | 19.10958 | 23947 ft | 314 kts | 296° |
| 2026-04-24 10:22 | 56.48441 | 19.07306 | 23952 ft | 314 kts | 296° |
| 2026-04-24 10:23 | 56.49304 | 19.03704 | 23947 ft | 314 kts | 296° |
| 2026-04-24 10:23 | 56.50167 | 19.00096 | 23946 ft | 314 kts | 296° |
| 2026-04-24 10:23 | 56.51030 | 18.96482 | 23941 ft | 314 kts | 296° |
| 2026-04-24 10:23 | 56.51897 | 18.92848 | 23945 ft | 314 kts | 296° |
| 2026-04-24 10:24 | 56.52658 | 18.89203 | 23924 ft | 317 kts | 288° |
| 2026-04-24 10:24 | 56.52589 | 18.85199 | 23966 ft | 327 kts | 262° |
| 2026-04-24 10:24 | 56.51850 | 18.81292 | 23958 ft | 331 kts | 255° |
| 2026-04-24 10:24 | 56.51033 | 18.77406 | 23955 ft | 332 kts | 255° |
| 2026-04-24 10:25 | 56.50203 | 18.73501 | 23958 ft | 333 kts | 255° |
| 2026-04-24 10:25 | 56.49378 | 18.69618 | 23963 ft | 333 kts | 255° |
| 2026-04-24 10:25 | 56.48549 | 18.65715 | 23968 ft | 333 kts | 255° |
| 2026-04-24 10:25 | 56.47723 | 18.61822 | 23961 ft | 333 kts | 255° |
| 2026-04-24 10:26 | 56.46890 | 18.57902 | 23955 ft | 334 kts | 255° |
| 2026-04-24 10:26 | 56.46063 | 18.54011 | 23964 ft | 334 kts | 255° |
| 2026-04-24 10:26 | 56.45228 | 18.50083 | 23971 ft | 334 kts | 255° |
| 2026-04-24 10:26 | 56.44398 | 18.46190 | 23967 ft | 334 kts | 255° |
| 2026-04-24 10:27 | 56.43570 | 18.42304 | 23971 ft | 334 kts | 255° |
| 2026-04-24 10:27 | 56.42735 | 18.38398 | 23975 ft | 334 kts | 255° |
| 2026-04-24 10:27 | 56.41904 | 18.34514 | 23972 ft | 334 kts | 254° |
| 2026-04-24 10:27 | 56.41062 | 18.30586 | 23977 ft | 334 kts | 254° |
| 2026-04-24 10:28 | 56.40226 | 18.26692 | 23976 ft | 334 kts | 254° |
| 2026-04-24 10:28 | 56.39393 | 18.22819 | 23976 ft | 334 kts | 254° |
| 2026-04-24 10:28 | 56.38553 | 18.18923 | 23977 ft | 334 kts | 254° |
| 2026-04-24 10:28 | 56.37707 | 18.15005 | 23976 ft | 334 kts | 254° |
| 2026-04-24 10:29 | 56.36867 | 18.11120 | 23984 ft | 334 kts | 254° |
| 2026-04-24 10:29 | 56.36023 | 18.07223 | 23988 ft | 334 kts | 254° |
| 2026-04-24 10:29 | 56.35180 | 18.03340 | 23989 ft | 334 kts | 254° |
| 2026-04-24 10:29 | 56.34334 | 17.99451 | 23984 ft | 335 kts | 253° |
| 2026-04-24 10:30 | 56.33478 | 17.95524 | 23983 ft | 335 kts | 254° |
| 2026-04-24 10:30 | 56.32641 | 17.91687 | 23981 ft | 335 kts | 254° |
| 2026-04-24 10:30 | 56.31786 | 17.87782 | 23983 ft | 335 kts | 254° |
| 2026-04-24 10:30 | 56.30931 | 17.83877 | 23984 ft | 335 kts | 253° |
| 2026-04-24 10:31 | 56.30075 | 17.79978 | 23981 ft | 335 kts | 254° |
| 2026-04-24 10:31 | 56.29224 | 17.76111 | 23980 ft | 335 kts | 254° |
| 2026-04-24 10:31 | 56.28368 | 17.72228 | 23979 ft | 335 kts | 254° |
| 2026-04-24 10:31 | 56.27513 | 17.68357 | 23985 ft | 335 kts | 254° |
| 2026-04-24 10:32 | 56.26653 | 17.64466 | 23982 ft | 335 kts | 253° |
| 2026-04-24 10:32 | 56.25787 | 17.60558 | 23983 ft | 335 kts | 253° |
| 2026-04-24 10:32 | 56.24923 | 17.56665 | 23981 ft | 335 kts | 253° |
| 2026-04-24 10:32 | 56.24063 | 17.52801 | 23985 ft | 335 kts | 253° |
| 2026-04-24 10:33 | 56.23198 | 17.48921 | 23988 ft | 334 kts | 254° |
| 2026-04-24 10:33 | 56.22335 | 17.45054 | 23983 ft | 335 kts | 254° |
| 2026-04-24 10:33 | 56.21470 | 17.41187 | 23986 ft | 335 kts | 253° |
| 2026-04-24 10:33 | 56.20605 | 17.37327 | 23987 ft | 335 kts | 254° |
| 2026-04-24 10:34 | 56.19733 | 17.33442 | 23988 ft | 335 kts | 253° |
| 2026-04-24 10:34 | 56.18870 | 17.29606 | 23990 ft | 335 kts | 253° |
| 2026-04-24 10:34 | 56.18000 | 17.25740 | 23989 ft | 336 kts | 253° |
| 2026-04-24 10:34 | 56.17121 | 17.21850 | 23990 ft | 336 kts | 253° |
| 2026-04-24 10:35 | 56.16248 | 17.17986 | 23990 ft | 336 kts | 253° |
| 2026-04-24 10:35 | 56.15367 | 17.14099 | 23993 ft | 337 kts | 253° |
| 2026-04-24 10:35 | 56.14486 | 17.10220 | 23990 ft | 337 kts | 253° |
| 2026-04-24 10:35 | 56.13602 | 17.06331 | 23988 ft | 337 kts | 253° |
| 2026-04-24 10:36 | 56.12719 | 17.02455 | 23988 ft | 337 kts | 253° |
| 2026-04-24 10:36 | 56.11837 | 16.98592 | 23990 ft | 337 kts | 253° |
| 2026-04-24 10:36 | 56.10941 | 16.94671 | 23988 ft | 337 kts | 253° |
| 2026-04-24 10:36 | 56.10052 | 16.90793 | 23991 ft | 337 kts | 253° |
| 2026-04-24 10:37 | 56.09163 | 16.86918 | 23992 ft | 337 kts | 253° |
| 2026-04-24 10:37 | 56.08282 | 16.83087 | 23995 ft | 337 kts | 253° |
| 2026-04-24 10:37 | 56.07385 | 16.79195 | 23999 ft | 337 kts | 253° |
| 2026-04-24 10:37 | 56.06505 | 16.75380 | 24001 ft | 336 kts | 252° |
| 2026-04-24 10:38 | 56.05610 | 16.71508 | 24002 ft | 336 kts | 253° |
| 2026-04-24 10:38 | 56.04718 | 16.67658 | 24007 ft | 336 kts | 253° |
| 2026-04-24 10:38 | 56.03824 | 16.63802 | 24003 ft | 336 kts | 253° |
| 2026-04-24 10:38 | 56.02930 | 16.59957 | 24007 ft | 336 kts | 253° |
| 2026-04-24 10:39 | 56.02038 | 16.56125 | 24010 ft | 336 kts | 253° |
| 2026-04-24 10:39 | 56.01138 | 16.52267 | 24008 ft | 336 kts | 253° |
| 2026-04-24 10:39 | 56.00236 | 16.48408 | 24004 ft | 336 kts | 252° |
| 2026-04-24 10:39 | 55.99337 | 16.44569 | 24007 ft | 337 kts | 252° |
| 2026-04-24 10:40 | 55.98431 | 16.40707 | 24007 ft | 336 kts | 253° |
| 2026-04-24 10:40 | 55.97533 | 16.36885 | 24006 ft | 336 kts | 252° |
| 2026-04-24 10:40 | 55.96631 | 16.33050 | 24011 ft | 337 kts | 252° |
| 2026-04-24 10:40 | 55.95718 | 16.29177 | 24010 ft | 337 kts | 252° |
| 2026-04-24 10:41 | 55.94818 | 16.25365 | 24005 ft | 337 kts | 252° |
| 2026-04-24 10:41 | 55.93902 | 16.21496 | 24006 ft | 337 kts | 252° |
| 2026-04-24 10:41 | 55.92991 | 16.17653 | 24008 ft | 337 kts | 252° |
| 2026-04-24 10:41 | 55.92079 | 16.13811 | 24009 ft | 337 kts | 252° |
| 2026-04-24 10:42 | 55.91174 | 16.10007 | 24010 ft | 337 kts | 252° |
| 2026-04-24 10:42 | 55.90259 | 16.06169 | 24007 ft | 337 kts | 252° |
| 2026-04-24 10:42 | 55.89340 | 16.02321 | 24003 ft | 337 kts | 252° |
| 2026-04-24 10:42 | 55.88423 | 15.98488 | 24003 ft | 336 kts | 252° |
| 2026-04-24 10:43 | 55.87585 | 15.94990 | 24008 ft | 336 kts | 252° |
| 2026-04-24 10:43 | 55.86672 | 15.91185 | 24005 ft | 335 kts | 252° |
| 2026-04-24 10:43 | 55.85748 | 15.87340 | 24006 ft | 335 kts | 252° |
| 2026-04-24 10:43 | 55.84831 | 15.83531 | 24005 ft | 335 kts | 251° |
| 2026-04-24 10:44 | 55.83918 | 15.79748 | 24004 ft | 335 kts | 252° |
| 2026-04-24 10:44 | 55.82996 | 15.75936 | 24002 ft | 335 kts | 252° |
| 2026-04-24 10:44 | 55.82081 | 15.72154 | 24002 ft | 335 kts | 252° |
| 2026-04-24 10:44 | 55.81148 | 15.68306 | 24002 ft | 335 kts | 252° |
| 2026-04-24 10:45 | 55.80203 | 15.64418 | 24003 ft | 334 kts | 252° |
| 2026-04-24 10:45 | 55.79267 | 15.60572 | 24000 ft | 334 kts | 252° |
| 2026-04-24 10:45 | 55.78345 | 15.56790 | 24003 ft | 334 kts | 252° |
| 2026-04-24 10:45 | 55.77425 | 15.53021 | 24002 ft | 334 kts | 252° |
| 2026-04-24 10:46 | 55.76521 | 15.49328 | 23994 ft | 333 kts | 252° |
| 2026-04-24 10:46 | 55.75576 | 15.45474 | 23997 ft | 333 kts | 252° |
| 2026-04-24 10:46 | 55.74651 | 15.41705 | 24001 ft | 333 kts | 252° |
| 2026-04-24 10:46 | 55.73702 | 15.37847 | 23998 ft | 332 kts | 252° |
| 2026-04-24 10:47 | 55.72760 | 15.34023 | 23995 ft | 332 kts | 251° |
| 2026-04-24 10:47 | 55.71863 | 15.30385 | 23994 ft | 332 kts | 251° |
| 2026-04-24 10:47 | 55.70937 | 15.26638 | 23996 ft | 332 kts | 251° |
| 2026-04-24 10:47 | 55.70005 | 15.22871 | 24001 ft | 332 kts | 251° |
| 2026-04-24 10:48 | 55.69079 | 15.19138 | 24000 ft | 333 kts | 251° |
| 2026-04-24 10:48 | 55.68144 | 15.15374 | 23996 ft | 333 kts | 251° |
| 2026-04-24 10:48 | 55.67219 | 15.11657 | 23994 ft | 334 kts | 251° |
| 2026-04-24 10:48 | 55.66275 | 15.07871 | 23992 ft | 334 kts | 251° |
| 2026-04-24 10:49 | 55.65346 | 15.04151 | 23997 ft | 334 kts | 251° |
| 2026-04-24 10:49 | 55.64402 | 15.00378 | 23999 ft | 334 kts | 251° |
| 2026-04-24 10:49 | 55.63462 | 14.96626 | 23998 ft | 334 kts | 251° |
| 2026-04-24 10:49 | 55.62521 | 14.92875 | 23988 ft | 334 kts | 251° |
| 2026-04-24 10:50 | 55.61581 | 14.89141 | 23989 ft | 334 kts | 251° |
| 2026-04-24 10:50 | 55.60638 | 14.85395 | 23995 ft | 333 kts | 251° |
| 2026-04-24 10:50 | 55.59702 | 14.81686 | 23999 ft | 333 kts | 251° |
| 2026-04-24 10:50 | 55.58760 | 14.77959 | 24007 ft | 332 kts | 251° |
| 2026-04-24 10:51 | 55.57812 | 14.74215 | 23995 ft | 333 kts | 251° |
| 2026-04-24 10:51 | 55.56873 | 14.70509 | 23992 ft | 333 kts | 251° |
| 2026-04-24 10:51 | 55.55935 | 14.66815 | 23996 ft | 332 kts | 251° |
| 2026-04-24 10:51 | 55.54991 | 14.63109 | 24000 ft | 332 kts | 251° |
| 2026-04-24 10:52 | 55.54037 | 14.59361 | 24003 ft | 332 kts | 251° |
| 2026-04-24 10:52 | 55.53097 | 14.55679 | 23999 ft | 332 kts | 251° |
| 2026-04-24 10:52 | 55.52152 | 14.51992 | 23814 ft | 327 kts | 251° |
| 2026-04-24 10:52 | 55.51222 | 14.48394 | 23325 ft | 320 kts | 251° |
| 2026-04-24 10:53 | 55.50312 | 14.44879 | 22834 ft | 315 kts | 251° |
| 2026-04-24 10:53 | 55.49411 | 14.41388 | 22341 ft | 311 kts | 251° |
| 2026-04-24 10:53 | 55.48524 | 14.37949 | 21853 ft | 307 kts | 251° |
| 2026-04-24 10:53 | 55.47647 | 14.34564 | 21378 ft | 304 kts | 251° |
| 2026-04-24 10:54 | 55.46773 | 14.31190 | 20873 ft | 301 kts | 251° |
| 2026-04-24 10:54 | 55.45911 | 14.27852 | 20398 ft | 298 kts | 251° |
| 2026-04-24 10:54 | 55.45060 | 14.24559 | 19933 ft | 302 kts | 251° |
| 2026-04-24 10:54 | 55.44190 | 14.21173 | 19471 ft | 308 kts | 251° |
| 2026-04-24 10:55 | 55.43308 | 14.17732 | 19005 ft | 312 kts | 251° |
| 2026-04-24 10:55 | 55.42757 | 14.14058 | 18411 ft | 311 kts | 268° |
| 2026-04-24 10:55 | 55.42616 | 14.10288 | 17920 ft | 313 kts | 271° |
| 2026-04-24 10:55 | 55.42500 | 14.06447 | 17487 ft | 315 kts | 271° |
| 2026-04-24 10:56 | 55.42393 | 14.02625 | 17034 ft | 316 kts | 271° |
| 2026-04-24 10:56 | 55.42287 | 13.98769 | 16558 ft | 317 kts | 271° |
| 2026-04-24 10:56 | 55.42181 | 13.94881 | 16117 ft | 318 kts | 271° |
| 2026-04-24 10:56 | 55.42075 | 13.91023 | 15648 ft | 319 kts | 271° |
| 2026-04-24 10:57 | 55.41969 | 13.87145 | 15197 ft | 320 kts | 271° |
| 2026-04-24 10:57 | 55.41862 | 13.83218 | 14715 ft | 320 kts | 271° |
| 2026-04-24 10:57 | 55.41754 | 13.79347 | 14267 ft | 321 kts | 271° |
| 2026-04-24 10:57 | 55.41645 | 13.75428 | 13819 ft | 320 kts | 271° |
| 2026-04-24 10:58 | 55.41536 | 13.71520 | 13343 ft | 320 kts | 271° |
| 2026-04-24 10:58 | 55.41425 | 13.67649 | 12876 ft | 320 kts | 271° |
| 2026-04-24 10:58 | 55.41314 | 13.63785 | 12435 ft | 319 kts | 271° |
| 2026-04-24 10:58 | 55.41203 | 13.59913 | 11977 ft | 319 kts | 271° |
| 2026-04-24 10:59 | 55.41151 | 13.56018 | 11488 ft | 317 kts | 277° |
| 2026-04-24 10:59 | 55.41621 | 13.52336 | 11072 ft | 308 kts | 290° |
| 2026-04-24 10:59 | 55.42251 | 13.48722 | 10647 ft | 307 kts | 290° |
| 2026-04-24 10:59 | 55.42875 | 13.45163 | 10146 ft | 307 kts | 290° |
| 2026-04-24 11:00 | 55.43499 | 13.41605 | 9735 ft | 305 kts | 290° |
| 2026-04-24 11:00 | 55.44119 | 13.38047 | 9309 ft | 300 kts | 290° |
| 2026-04-24 11:00 | 55.44714 | 13.34588 | 8871 ft | 287 kts | 290° |
| 2026-04-24 11:00 | 55.45274 | 13.31331 | 8466 ft | 276 kts | 290° |
| 2026-04-24 11:01 | 55.45673 | 13.28060 | 8088 ft | 269 kts | 275° |
| 2026-04-24 11:01 | 55.45223 | 13.24970 | 7963 ft | 260 kts | 252° |
| 2026-04-24 11:01 | 55.44495 | 13.22115 | 7776 ft | 245 kts | 251° |
| 2026-04-24 11:01 | 55.43808 | 13.19483 | 7635 ft | 229 kts | 251° |
| 2026-04-24 11:02 | 55.43171 | 13.16977 | 7570 ft | 224 kts | 256° |
| 2026-04-24 11:02 | 55.42814 | 13.14368 | 7546 ft | 216 kts | 267° |
| 2026-04-24 11:02 | 55.42589 | 13.11710 | 7542 ft | 223 kts | 268° |
| 2026-04-24 11:02 | 55.42372 | 13.08965 | 7564 ft | 231 kts | 268° |
| 2026-04-24 11:03 | 55.42147 | 13.06107 | 7527 ft | 239 kts | 268° |
| 2026-04-24 11:03 | 55.41918 | 13.03211 | 7532 ft | 244 kts | 268° |
| 2026-04-24 11:03 | 55.41682 | 13.00240 | 7546 ft | 248 kts | 267° |
| 2026-04-24 11:03 | 55.41439 | 12.97173 | 7572 ft | 253 kts | 267° |
| 2026-04-24 11:04 | 55.41197 | 12.94127 | 7540 ft | 257 kts | 267° |
| 2026-04-24 11:04 | 55.40948 | 12.91003 | 7559 ft | 259 kts | 267° |
| 2026-04-24 11:04 | 55.40697 | 12.87865 | 7539 ft | 262 kts | 267° |
| 2026-04-24 11:04 | 55.40438 | 12.84619 | 7360 ft | 265 kts | 267° |
| 2026-04-24 11:05 | 55.40178 | 12.81500 | 7087 ft | 253 kts | 267° |
| 2026-04-24 11:05 | 55.39928 | 12.78513 | 6816 ft | 241 kts | 267° |
| 2026-04-24 11:05 | 55.39695 | 12.75682 | 6553 ft | 230 kts | 268° |
| 2026-04-24 11:05 | 55.39469 | 12.72945 | 6302 ft | 220 kts | 268° |
| 2026-04-24 11:06 | 55.39256 | 12.70345 | 6060 ft | 210 kts | 268° |
| 2026-04-24 11:06 | 55.39053 | 12.67871 | 5831 ft | 203 kts | 268° |
| 2026-04-24 11:06 | 55.38863 | 12.65379 | 5621 ft | 213 kts | 268° |
| 2026-04-24 11:06 | 55.38660 | 12.62751 | 5385 ft | 223 kts | 268° |
| 2026-04-24 11:07 | 55.38215 | 12.57171 | 4863 ft | 239 kts | 267° |
| 2026-04-24 11:07 | 55.37974 | 12.54212 | 4583 ft | 246 kts | 266° |
| 2026-04-24 11:07 | 55.37727 | 12.51211 | 4306 ft | 251 kts | 266° |
| 2026-04-24 11:08 | 55.37241 | 12.48296 | 4096 ft | 256 kts | 245° |
| 2026-04-24 11:08 | 55.36232 | 12.45865 | 4009 ft | 235 kts | 249° |
| 2026-04-24 11:08 | 55.35929 | 12.43249 | 4048 ft | 208 kts | 278° |
| 2026-04-24 11:08 | 55.36400 | 12.40924 | 3938 ft | 203 kts | 304° |
| 2026-04-24 11:09 | 55.37181 | 12.38856 | 3877 ft | 203 kts | 307° |
| 2026-04-24 11:09 | 55.38220 | 12.37206 | 3757 ft | 203 kts | 335° |
| 2026-04-24 11:09 | 55.39596 | 12.36849 | 3644 ft | 206 kts | 3° |
| 2026-04-24 11:09 | 55.41017 | 12.37231 | 3590 ft | 207 kts | 6° |
| 2026-04-24 11:10 | 55.42439 | 12.37638 | 3545 ft | 207 kts | 6° |
| 2026-04-24 11:10 | 55.43871 | 12.38055 | 3507 ft | 206 kts | 7° |
| 2026-04-24 11:10 | 55.45179 | 12.39091 | 3403 ft | 216 kts | 35° |
| 2026-04-24 11:10 | 55.46290 | 12.40766 | 3341 ft | 205 kts | 33° |
| 2026-04-24 11:11 | 55.47411 | 12.42300 | 3133 ft | 203 kts | 33° |
| 2026-04-24 11:11 | 55.48479 | 12.43848 | 2825 ft | 196 kts | 35° |
| 2026-04-24 11:11 | 55.49493 | 12.45390 | 2621 ft | 188 kts | 36° |
| 2026-04-24 11:11 | 55.50469 | 12.46856 | 2424 ft | 182 kts | 35° |
| 2026-04-24 11:12 | 55.51410 | 12.48285 | 2121 ft | 175 kts | 36° |
| 2026-04-24 11:12 | 55.52323 | 12.49696 | 1802 ft | 174 kts | 36° |
| 2026-04-24 11:12 | 55.53200 | 12.51048 | 1547 ft | 160 kts | 36° |
| 2026-04-24 11:12 | 55.54002 | 12.52279 | 1392 ft | 151 kts | 36° |
| 2026-04-24 11:13 | 55.54793 | 12.53491 | 1154 ft | 145 kts | 36° |
| 2026-04-24 11:13 | 55.55531 | 12.54635 | 946 ft | 137 kts | 38° |
| 2026-04-24 11:13 | 55.56230 | 12.55735 | 765 ft | 134 kts | 39° |
| 2026-04-24 11:13 | 55.56920 | 12.56804 | 608 ft | 132 kts | 38° |
| 2026-04-24 11:14 | 55.57619 | 12.57887 | 441 ft | 133 kts | 40° |
| 2026-04-24 11:14 | 55.58321 | 12.58973 | 289 ft | 135 kts | 39° |
| 2026-04-24 11:14 | 55.59037 | 12.60067 | 91 ft | 133 kts | 40° |
| 2026-04-24 11:14 | 55.59702 | 12.61099 | 21 ft | 118 kts | 42° |
| 2026-04-24 11:15 | 55.60229 | 12.61913 | 21 ft | 78 kts | 41° |
| 2026-04-24 11:15 | 55.60561 | 12.62425 | 23 ft | 54 kts | 40° |
| 2026-04-24 11:15 | 55.60817 | 12.62825 | 23 ft | 44 kts | 41° |
| 2026-04-24 11:15 | 55.61029 | 12.63153 | 24 ft | 36 kts | 41° |
| 2026-04-24 11:16 | 55.61208 | 12.63429 | 24 ft | 33 kts | 41° |
| 2026-04-24 11:16 | 55.61409 | 12.63738 | 24 ft | 36 kts | 41° |
| 2026-04-24 11:16 | 55.61575 | 12.63998 | 24 ft | 27 kts | 41° |
| 2026-04-24 11:16 | 55.61709 | 12.64090 | 24 ft | 17 kts | 358° |
| 2026-04-24 11:17 | 55.61807 | 12.64076 | 24 ft | 9 kts | 354° |
| 2026-04-24 11:17 | 55.61828 | 12.64072 | 24 ft | 0 kts | 354° |
| 2026-04-24 11:19 | 55.61895 | 12.64090 | 24 ft | 20 kts | 25° |
| 2026-04-24 11:19 | 55.62044 | 12.64216 | 23 ft | 23 kts | 26° |
| 2026-04-24 11:19 | 55.62185 | 12.64333 | 23 ft | 21 kts | 26° |
| 2026-04-24 11:20 | 55.62280 | 12.64531 | 22 ft | 22 kts | 66° |
| 2026-04-24 11:20 | 55.62342 | 12.64778 | 22 ft | 20 kts | 66° |
| 2026-04-24 11:20 | 55.62317 | 12.64962 | 22 ft | 15 kts | 122° |
| 2026-04-24 11:20 | 55.62275 | 12.65129 | 21 ft | 15 kts | 73° |
| 2026-04-24 11:21 | 55.62293 | 12.65320 | 20 ft | 17 kts | 89° |
| 2026-04-24 11:21 | 55.62295 | 12.65522 | 19 ft | 15 kts | 90° |
| 2026-04-24 11:21 | 55.62297 | 12.65698 | 19 ft | 13 kts | 90° |
| 2026-04-24 11:21 | 55.62311 | 12.65815 | 18 ft | 7 kts | 13° |
| 2026-04-24 11:22 | 55.62341 | 12.65832 | 18 ft | 4 kts | 38° |
| 2026-04-24 11:22 | 55.62352 | 12.65845 | 18 ft | 1 kts | 37° |
| 2026-04-24 11:22 | 55.62355 | 12.65849 | 18 ft | 0 kts | 37° |